Time;durP1;ratioP1;P1;durP2;ratioP2;P2;SDS_P1;SDS_P2;PMS_P1;PMS_P2;Temp;Humidity;BMP_temperature;BMP_pressure;BME280_temperature;BME280_humidity;BME280_pressure;Samples;Min_cycle;Max_cycle;Signal;HPM_P1;HPM_P2
2022/04/12 00:00:28;;;;;;;9.85;5.70;;;4.60;80.70;;;;;;5055390;28;20071;-68
2022/04/12 00:02:53;;;;;;;11.63;6.22;;;4.60;80.30;;;;;;5059748;28;20036;-65
2022/04/12 00:05:19;;;;;;;10.02;6.10;;;4.50;80.50;;;;;;5060009;28;20040;-68
2022/04/12 00:07:45;;;;;;;11.75;5.80;;;4.50;81.30;;;;;;5042226;28;20801;-66
2022/04/12 00:10:12;;;;;;;10.48;5.50;;;4.50;81.80;;;;;;5060257;28;20024;-66
2022/04/12 00:12:38;;;;;;;8.93;5.70;;;4.50;82.00;;;;;;5059121;28;20048;-66
2022/04/12 00:15:06;;;;;;;10.45;6.00;;;4.50;81.90;;;;;;5057186;28;20040;-65
2022/04/12 00:20:18;;;;;;;11.85;5.97;;;4.50;82.00;;;;;;5060099;28;20716;-66
2022/04/12 00:22:44;;;;;;;8.93;5.38;;;4.50;81.40;;;;;;5043303;28;20101;-66
2022/04/12 00:25:12;;;;;;;12.70;5.47;;;4.40;81.50;;;;;;5058647;28;20083;-66
2022/04/12 00:27:38;;;;;;;11.10;6.13;;;4.40;81.40;;;;;;5057843;28;20016;-66
2022/04/12 00:30:09;;;;;;;9.82;5.45;;;4.40;81.50;;;;;;5042525;28;20052;-66
2022/04/12 00:32:35;;;;;;;10.05;5.10;;;4.40;81.60;;;;;;5055442;28;20032;-66
2022/04/12 00:35:02;;;;;;;9.43;5.40;;;4.40;81.40;;;;;;5059431;28;20575;-66
2022/04/12 00:37:28;;;;;;;13.07;5.97;;;4.50;81.30;;;;;;5041918;28;20028;-66
2022/04/12 00:39:54;;;;;;;11.25;5.97;;;4.50;80.90;;;;;;5057273;28;20032;-66
2022/04/12 00:42:20;;;;;;;7.20;4.97;;;4.60;80.20;;;;;;5056625;28;20631;-66
2022/04/12 00:44:46;;;;;;;7.93;4.68;;;4.60;79.20;;;;;;5058612;28;20090;-66
2022/04/12 00:47:12;;;;;;;9.40;4.82;;;4.70;78.90;;;;;;5059402;28;20063;-66
2022/04/12 00:49:37;;;;;;;11.18;4.75;;;4.70;78.50;;;;;;5059943;28;20040;-66
2022/04/12 00:52:04;;;;;;;8.95;4.20;;;4.80;78.00;;;;;;5059372;28;20571;-66
2022/04/12 00:54:33;;;;;;;11.30;4.82;;;4.80;77.70;;;;;;5057000;28;20116;-66
2022/04/12 00:56:59;;;;;;;11.00;5.25;;;4.80;77.20;;;;;;5055941;28;20671;-66
2022/04/12 00:59:26;;;;;;;8.98;5.03;;;4.80;77.20;;;;;;5053911;28;20032;-66
2022/04/12 01:01:52;;;;;;;10.02;4.57;;;4.80;77.20;;;;;;5058547;28;20063;-66
2022/04/12 01:04:19;;;;;;;6.72;4.78;;;4.80;77.40;;;;;;5057136;28;20036;-66
2022/04/12 01:06:46;;;;;;;8.57;4.80;;;4.80;77.40;;;;;;5056834;28;20052;-66
2022/04/12 01:09:12;;;;;;;10.88;5.10;;;4.80;77.40;;;;;;5060585;28;20115;-66
2022/04/12 01:11:39;;;;;;;10.10;5.03;;;4.70;77.50;;;;;;5054150;28;20557;-66
2022/04/12 01:14:07;;;;;;;10.73;5.25;;;4.80;77.60;;;;;;5058225;28;20053;-66
2022/04/12 01:16:33;;;;;;;7.22;4.50;;;4.70;77.70;;;;;;5053753;28;20040;-66
2022/04/12 01:18:59;;;;;;;9.40;4.43;;;4.60;78.60;;;;;;5041093;28;20059;-66
2022/04/12 01:21:30;;;;;;;8.13;4.85;;;4.50;78.80;;;;;;5057324;28;20111;-66
2022/04/12 01:24:06;;;;;;;7.25;4.72;;;4.50;78.80;;;;;;5060146;28;20244;-66
2022/04/12 01:26:32;;;;;;;9.73;4.55;;;4.50;79.10;;;;;;5056810;28;20029;-66
2022/04/12 01:28:58;;;;;;;8.82;4.78;;;4.40;80.60;;;;;;5056797;28;20059;-66
2022/04/12 01:31:25;;;;;;;7.55;4.80;;;4.30;80.20;;;;;;5039809;28;20743;-66
2022/04/12 01:33:52;;;;;;;7.40;4.93;;;4.20;81.10;;;;;;5056820;28;20028;-66
2022/04/12 01:36:18;;;;;;;10.38;4.72;;;4.10;81.60;;;;;;5055577;28;20033;-66
2022/04/12 01:38:43;;;;;;;9.50;5.18;;;4.00;81.70;;;;;;5059172;28;20538;-66
2022/04/12 01:41:09;;;;;;;11.57;4.97;;;3.90;81.90;;;;;;5060089;28;20123;-66
2022/04/12 01:43:35;;;;;;;6.85;4.68;;;3.80;82.60;;;;;;5058587;28;20032;-66
2022/04/12 01:46:01;;;;;;;8.00;4.30;;;3.80;83.00;;;;;;5059997;28;20571;-66
2022/04/12 01:48:26;;;;;;;8.77;4.05;;;3.80;83.00;;;;;;5053758;28;20051;-66
2022/04/12 01:50:52;;;;;;;6.95;4.15;;;3.80;82.80;;;;;;5056614;28;20128;-66
2022/04/12 01:53:18;;;;;;;6.10;3.92;;;3.90;82.20;;;;;;5057113;28;20048;-65
2022/04/12 01:55:44;;;;;;;7.90;4.13;;;3.90;81.60;;;;;;5059391;28;20017;-66
2022/04/12 01:58:09;;;;;;;7.03;3.90;;;4.00;81.00;;;;;;5058826;28;20055;-66
2022/04/12 02:00:36;;;;;;;5.88;3.70;;;4.00;80.70;;;;;;5059094;28;20040;-66
2022/04/12 02:03:03;;;;;;;5.50;3.47;;;4.00;80.20;;;;;;5060292;28;20029;-66
2022/04/12 02:05:28;;;;;;;8.35;3.85;;;4.10;80.10;;;;;;5055189;28;20051;-65
2022/04/12 02:07:54;;;;;;;8.98;3.83;;;4.10;79.80;;;;;;5061521;28;20025;-66
2022/04/12 02:10:22;;;;;;;6.40;3.60;;;4.10;79.70;;;;;;5062477;28;20028;-66
2022/04/12 02:12:49;;;;;;;5.97;3.80;;;4.10;79.50;;;;;;5059343;28;20469;-66
2022/04/12 02:15:15;;;;;;;7.03;3.45;;;4.10;79.50;;;;;;5060463;28;20033;-66
2022/04/12 02:17:41;;;;;;;6.22;3.53;;;4.20;79.10;;;;;;5061695;28;20075;-66
2022/04/12 02:20:07;;;;;;;5.78;3.65;;;4.10;79.70;;;;;;5063287;28;20139;-66
2022/04/12 02:22:33;;;;;;;7.13;3.67;;;4.10;79.70;;;;;;5060470;28;20086;-66
2022/04/12 02:24:59;;;;;;;7.10;3.67;;;4.10;79.70;;;;;;5062344;28;20106;-66
2022/04/12 02:27:25;;;;;;;5.35;3.30;;;4.10;79.80;;;;;;5060776;28;20885;-66
2022/04/12 02:29:51;;;;;;;7.10;3.40;;;4.00;79.80;;;;;;5058222;28;20060;-66
2022/04/12 02:32:16;;;;;;;6.60;3.38;;;4.00;79.90;;;;;;5058961;28;20392;-66
2022/04/12 02:34:42;;;;;;;5.75;3.47;;;4.00;80.60;;;;;;5060189;28;20397;-66
2022/04/12 02:37:08;;;;;;;6.88;3.70;;;4.00;80.10;;;;;;5062583;28;20037;-66
2022/04/12 02:39:34;;;;;;;7.32;4.13;;;3.90;80.40;;;;;;5063323;28;20031;-66
2022/04/12 02:42:00;;;;;;;4.72;3.22;;;3.90;80.40;;;;;;5062789;28;20571;-66
2022/04/12 02:44:26;;;;;;;6.40;3.13;;;3.80;80.90;;;;;;5062433;28;20043;-66
2022/04/12 02:46:51;;;;;;;9.63;3.75;;;3.80;80.90;;;;;;5063130;28;20131;-66
2022/04/12 02:49:17;;;;;;;10.38;4.00;;;3.80;81.60;;;;;;5060053;28;20468;-66
2022/04/12 02:51:45;;;;;;;5.90;3.17;;;3.80;80.90;;;;;;5058535;28;20024;-66
2022/04/12 02:54:11;;;;;;;6.32;3.47;;;3.80;81.00;;;;;;5060449;28;20021;-66
2022/04/12 02:56:37;;;;;;;9.65;3.55;;;3.70;81.00;;;;;;5060813;28;20043;-66
2022/04/12 02:59:03;;;;;;;5.97;3.22;;;3.80;81.20;;;;;;5062155;28;20025;-66
2022/04/12 03:01:29;;;;;;;7.80;3.78;;;3.70;81.30;;;;;;5054735;28;20055;-65
2022/04/12 03:03:55;;;;;;;5.55;3.88;;;3.70;81.60;;;;;;5057209;28;20028;-66
2022/04/12 03:06:20;;;;;;;6.10;3.88;;;3.60;82.10;;;;;;5058622;28;20048;-66
2022/04/12 03:08:46;;;;;;;6.50;3.63;;;3.60;82.80;;;;;;5059169;28;20017;-66
2022/04/12 03:11:12;;;;;;;5.05;3.30;;;3.50;82.90;;;;;;5060183;28;20047;-66
2022/04/12 03:13:38;;;;;;;7.57;3.80;;;3.40;83.10;;;;;;5060763;28;20024;-66
2022/04/12 03:16:04;;;;;;;9.80;3.72;;;3.30;83.60;;;;;;5061539;28;20103;-66
2022/04/12 03:18:29;;;;;;;10.20;4.72;;;3.30;83.70;;;;;;5059069;28;20476;-65
2022/04/12 03:20:55;;;;;;;9.23;5.15;;;3.30;83.90;;;;;;5056423;28;20052;-66
2022/04/12 03:23:21;;;;;;;8.63;4.65;;;3.30;83.80;;;;;;5059183;28;20900;-65
2022/04/12 03:25:46;;;;;;;11.40;5.03;;;3.20;84.20;;;;;;5060278;28;20036;-66
2022/04/12 03:28:14;;;;;;;6.43;4.00;;;3.10;84.60;;;;;;5060808;28;20037;-66
2022/04/12 03:30:40;;;;;;;6.40;3.90;;;3.20;84.50;;;;;;5061106;28;20028;-66
2022/04/12 03:33:06;;;;;;;7.68;3.55;;;3.20;84.10;;;;;;5060038;28;20064;-66
2022/04/12 03:35:32;;;;;;;6.28;3.80;;;3.20;84.00;;;;;;5061292;28;20032;-66
2022/04/12 03:38:01;;;;;;;7.47;3.95;;;3.20;84.60;;;;;;5061075;28;20168;-66
2022/04/12 03:40:33;;;;;;;6.85;4.25;;;3.20;83.90;;;;;;5058754;28;20047;-66
2022/04/12 03:43:01;;;;;;;10.90;6.32;;;3.10;84.20;;;;;;5061161;28;20071;-66
2022/04/12 03:45:31;;;;;;;14.65;6.38;;;3.10;84.40;;;;;;5059421;28;20048;-66
2022/04/12 03:47:57;;;;;;;14.48;7.93;;;3.00;84.40;;;;;;5059341;28;20119;-66
2022/04/12 03:50:23;;;;;;;13.98;7.55;;;3.00;84.70;;;;;;5058436;28;20048;-66
2022/04/12 03:52:50;;;;;;;17.02;8.57;;;2.90;85.20;;;;;;5043027;28;20028;-66
2022/04/12 03:55:30;;;;;;;14.30;7.63;;;2.90;85.50;;;;;;5060796;28;20072;-66
2022/04/12 03:58:00;;;;;;;16.02;7.78;;;2.80;86.30;;;;;;5059478;28;20035;-66
2022/04/12 04:00:26;;;;;;;12.45;7.72;;;2.80;85.80;;;;;;5060805;28;20384;-66
2022/04/12 04:02:52;;;;;;;16.92;8.00;;;2.80;86.30;;;;;;5058907;28;20028;-66
2022/04/12 04:05:18;;;;;;;11.40;6.32;;;2.80;86.50;;;;;;5056317;28;20723;-66
2022/04/12 04:07:43;;;;;;;10.23;5.93;;;2.70;86.70;;;;;;5059718;28;20861;-66
2022/04/12 04:10:09;;;;;;;8.85;4.85;;;2.70;86.80;;;;;;5060414;28;20052;-68
2022/04/12 04:12:35;;;;;;;12.30;5.32;;;2.80;87.20;;;;;;5059156;28;20472;-65
2022/04/12 04:15:01;;;;;;;9.45;4.80;;;2.80;86.90;;;;;;5060686;28;20105;-66
2022/04/12 04:17:26;;;;;;;13.60;6.43;;;2.80;87.10;;;;;;5059824;28;20127;-66
2022/04/12 04:19:52;;;;;;;8.98;4.95;;;2.80;86.60;;;;;;5042369;28;20036;-66
2022/04/12 04:22:18;;;;;;;13.82;6.72;;;2.80;86.40;;;;;;5041082;28;20033;-70
2022/04/12 04:24:44;;;;;;;15.38;7.60;;;2.90;86.50;;;;;;5058765;28;20036;-66
2022/04/12 04:27:09;;;;;;;17.92;8.15;;;2.80;86.70;;;;;;5058270;28;20033;-66
2022/04/12 04:29:35;;;;;;;18.83;7.88;;;2.80;86.50;;;;;;5059916;28;20021;-66
2022/04/12 04:32:02;;;;;;;10.65;5.22;;;2.90;86.50;;;;;;5061034;28;20028;-66
2022/04/12 04:34:27;;;;;;;7.40;4.50;;;2.90;86.20;;;;;;5056892;28;20488;-65
2022/04/12 04:36:53;;;;;;;8.55;4.43;;;3.00;85.90;;;;;;5060296;28;20052;-65
2022/04/12 04:39:19;;;;;;;7.85;4.15;;;3.20;85.30;;;;;;5042358;28;20032;-64
2022/04/12 04:41:45;;;;;;;9.73;3.95;;;3.30;84.80;;;;;;5057295;28;20024;-64
2022/04/12 04:44:10;;;;;;;7.30;3.90;;;3.40;84.20;;;;;;5059562;28;20056;-64
2022/04/12 04:46:36;;;;;;;4.82;3.38;;;3.50;83.40;;;;;;5060101;28;20029;-65
2022/04/12 04:49:02;;;;;;;7.45;3.90;;;3.60;82.70;;;;;;5041702;28;20512;-65
2022/04/12 04:51:28;;;;;;;6.47;3.25;;;3.70;82.20;;;;;;5060656;28;20029;-66
2022/04/12 04:54:00;;;;;;;6.38;3.40;;;3.80;81.80;;;;;;5057798;28;20404;-65
2022/04/12 04:56:27;;;;;;;6.43;3.78;;;3.90;81.50;;;;;;5056590;28;20270;-64
2022/04/12 04:58:53;;;;;;;9.63;3.80;;;3.90;81.10;;;;;;5057373;28;20077;-66
2022/04/12 05:01:20;;;;;;;6.38;3.38;;;4.00;81.00;;;;;;5059535;28;20072;-66
2022/04/12 05:03:47;;;;;;;7.70;3.30;;;4.20;80.40;;;;;;5060993;28;20032;-66
2022/04/12 05:06:14;;;;;;;7.97;3.35;;;4.30;79.60;;;;;;5059250;28;20087;-66
2022/04/12 05:08:40;;;;;;;3.97;3.22;;;4.50;78.80;;;;;;5060903;28;20051;-65
2022/04/12 05:11:06;;;;;;;7.18;3.70;;;4.60;78.00;;;;;;5055300;28;20028;-66
2022/04/12 05:13:31;;;;;;;3.70;2.75;;;4.80;77.50;;;;;;5057163;28;20042;-66
2022/04/12 05:15:59;;;;;;;6.28;3.15;;;4.90;76.80;;;;;;5057437;28;20036;-66
2022/04/12 05:18:25;;;;;;;6.68;4.03;;;5.20;76.70;;;;;;5057408;28;20749;-66
2022/04/12 05:20:52;;;;;;;6.95;2.88;;;5.40;74.90;;;;;;5057211;28;20036;-66
2022/04/12 05:23:18;;;;;;;7.47;2.88;;;5.50;74.00;;;;;;5057237;28;20041;-67
2022/04/12 05:25:43;;;;;;;8.52;2.95;;;5.70;73.00;;;;;;5058107;28;20043;-67
2022/04/12 05:28:09;;;;;;;4.57;2.97;;;5.80;72.60;;;;;;5057170;28;20032;-67
2022/04/12 05:30:35;;;;;;;5.72;2.90;;;6.00;71.80;;;;;;5058247;28;20526;-64
2022/04/12 05:33:00;;;;;;;5.45;3.03;;;6.10;71.40;;;;;;5059340;28;20611;-66
2022/04/12 05:35:26;;;;;;;8.55;2.92;;;6.20;70.90;;;;;;5056966;28;20121;-65
2022/04/12 05:37:53;;;;;;;5.28;2.78;;;6.30;70.40;;;;;;5056133;28;20048;-65
2022/04/12 05:40:21;;;;;;;6.03;3.38;;;6.30;70.10;;;;;;5058898;28;20643;-65
2022/04/12 05:42:48;;;;;;;5.03;2.65;;;6.40;70.00;;;;;;5062148;28;20028;-65
2022/04/12 05:45:14;;;;;;;6.70;3.25;;;6.60;69.50;;;;;;5063494;28;20048;-65
2022/04/12 05:47:41;;;;;;;4.95;3.00;;;6.90;68.30;;;;;;5061972;28;20020;-65
2022/04/12 05:50:08;;;;;;;6.50;2.45;;;7.20;67.20;;;;;;5060668;28;20040;-65
2022/04/12 05:52:34;;;;;;;7.68;3.03;;;7.50;65.90;;;;;;5062331;28;20022;-66
2022/04/12 05:54:59;;;;;;;7.38;3.95;;;7.80;64.50;;;;;;5060606;28;20493;-67
2022/04/12 05:57:25;;;;;;;5.22;2.78;;;8.20;63.10;;;;;;5059702;28;20037;-66
2022/04/12 05:59:51;;;;;;;7.45;3.15;;;8.80;61.40;;;;;;5062395;28;20040;-66
2022/04/12 06:02:16;;;;;;;5.32;3.00;;;10.00;58.90;;;;;;5062964;28;20777;-66
2022/04/12 06:04:42;;;;;;;5.88;3.00;;;12.00;53.70;;;;;;5062681;28;20492;-66
2022/04/12 06:07:08;;;;;;;11.38;3.05;;;13.90;48.10;;;;;;5056123;28;20016;-66
2022/04/12 06:09:33;;;;;;;6.47;2.67;;;15.40;44.00;;;;;;5058028;28;20111;-66
2022/04/12 06:11:59;;;;;;;5.15;3.00;;;16.70;41.40;;;;;;5060136;28;20484;-66
2022/04/12 06:14:25;;;;;;;9.18;2.90;;;17.80;38.10;;;;;;5059163;28;20098;-67
2022/04/12 06:16:50;;;;;;;6.07;2.63;;;18.50;36.50;;;;;;5062189;28;20063;-67
2022/04/12 06:19:16;;;;;;;13.88;3.10;;;19.70;35.20;;;;;;5063178;28;20151;-64
2022/04/12 06:21:42;;;;;;;5.45;2.97;;;20.90;33.10;;;;;;5062415;28;20029;-68
2022/04/12 06:24:07;;;;;;;5.30;2.55;;;21.30;32.10;;;;;;5057017;28;20056;-67
2022/04/12 06:26:33;;;;;;;3.50;2.40;;;21.50;31.60;;;;;;5057315;28;20039;-68
2022/04/12 06:28:59;;;;;;;9.13;3.00;;;22.40;30.80;;;;;;5060560;28;20103;-67
2022/04/12 06:31:24;;;;;;;5.35;2.97;;;22.50;29.90;;;;;;5060066;28;20825;-65
2022/04/12 06:33:50;;;;;;;4.95;2.80;;;23.20;29.50;;;;;;5062716;28;20574;-68
2022/04/12 06:36:16;;;;;;;5.90;2.80;;;22.80;29.40;;;;;;5043554;28;20116;-67
2022/04/12 06:38:42;;;;;;;8.23;3.28;;;22.00;30.00;;;;;;5061081;28;20047;-67
2022/04/12 06:41:07;;;;;;;4.55;2.80;;;21.60;30.10;;;;;;5044236;28;20036;-67
2022/04/12 06:43:33;;;;;;;4.13;2.78;;;21.80;30.10;;;;;;5060038;28;20041;-67
2022/04/12 06:45:59;;;;;;;5.75;2.80;;;21.50;30.30;;;;;;5060409;28;20032;-66
2022/04/12 06:48:25;;;;;;;5.57;3.10;;;21.40;30.50;;;;;;5059017;28;20029;-66
2022/04/12 06:50:52;;;;;;;5.53;2.28;;;21.80;30.00;;;;;;5061887;28;20052;-67
2022/04/12 06:53:18;;;;;;;5.32;2.40;;;21.60;30.30;;;;;;5058352;28;20024;-67
2022/04/12 06:55:43;;;;;;;5.20;2.95;;;21.30;30.50;;;;;;5061301;28;20465;-66
2022/04/12 06:58:09;;;;;;;6.43;3.40;;;21.90;30.10;;;;;;5061723;28;20032;-66
2022/04/12 07:00:36;;;;;;;6.78;3.00;;;23.20;28.70;;;;;;5061682;28;20732;-66
2022/04/12 07:03:02;;;;;;;5.30;2.90;;;22.40;29.00;;;;;;5057161;28;20540;-67
2022/04/12 07:05:28;;;;;;;4.50;2.85;;;21.30;30.00;;;;;;5061028;28;20111;-67
2022/04/12 07:07:54;;;;;;;7.90;3.22;;;19.90;32.30;;;;;;5056899;28;20094;-67
2022/04/12 07:10:20;;;;;;;5.43;3.58;;;19.30;33.30;;;;;;5059690;28;20585;-65
2022/04/12 07:12:46;;;;;;;5.72;3.90;;;19.40;32.90;;;;;;5058269;28;20040;-65
2022/04/12 07:15:13;;;;;;;7.75;3.85;;;19.80;32.10;;;;;;5061008;28;20040;-65
2022/04/12 07:17:39;;;;;;;10.13;3.85;;;22.00;30.00;;;;;;5059488;28;20569;-67
2022/04/12 07:20:05;;;;;;;8.15;3.72;;;24.20;28.10;;;;;;5062132;28;20033;-73
2022/04/12 07:22:31;;;;;;;6.72;3.83;;;26.20;27.00;;;;;;5056925;28;20036;-66
2022/04/12 07:24:57;;;;;;;8.85;3.60;;;28.00;25.30;;;;;;5059745;28;20047;-66
2022/04/12 07:27:22;;;;;;;4.88;3.20;;;29.00;24.50;;;;;;5058374;28;20064;-66
2022/04/12 07:29:48;;;;;;;6.43;3.30;;;29.00;23.90;;;;;;5058985;28;20025;-67
2022/04/12 07:32:14;;;;;;;5.78;3.33;;;27.90;24.20;;;;;;5061374;28;20852;-66
2022/04/12 07:34:39;;;;;;;6.82;3.38;;;26.50;25.30;;;;;;5060385;28;20035;-66
2022/04/12 07:37:05;;;;;;;6.57;3.20;;;25.50;25.60;;;;;;5060932;28;20729;-66
2022/04/12 07:39:31;;;;;;;3.78;2.80;;;24.30;26.70;;;;;;5051457;28;20123;-66
2022/04/12 07:41:57;;;;;;;4.10;2.95;;;24.00;26.80;;;;;;5057166;28;20031;-67
2022/04/12 07:44:22;;;;;;;5.05;2.60;;;24.70;26.60;;;;;;5037693;28;20032;-67
2022/04/12 07:46:48;;;;;;;5.45;2.97;;;24.90;25.60;;;;;;5055491;28;20086;-66
2022/04/12 07:49:14;;;;;;;3.88;2.67;;;24.60;25.80;;;;;;5061044;28;20081;-67
2022/04/12 07:51:41;;;;;;;6.30;2.58;;;24.00;26.50;;;;;;5060005;28;20375;-66
2022/04/12 07:54:07;;;;;;;4.45;2.42;;;23.80;27.20;;;;;;5059969;28;20040;-66
2022/04/12 07:56:34;;;;;;;3.53;2.38;;;24.60;25.80;;;;;;5060762;28;20040;-66
2022/04/12 07:59:00;;;;;;;5.05;2.45;;;23.90;26.10;;;;;;5058592;28;20032;-67
2022/04/12 08:01:26;;;;;;;5.38;2.42;;;23.80;26.50;;;;;;5058761;28;20493;-66
2022/04/12 08:03:52;;;;;;;4.32;2.20;;;23.80;27.30;;;;;;5060882;28;20032;-67
2022/04/12 08:06:18;;;;;;;4.53;2.50;;;23.70;26.40;;;;;;5060438;28;20044;-67
2022/04/12 08:08:44;;;;;;;3.33;2.58;;;23.00;26.90;;;;;;5060316;28;20477;-67
2022/04/12 08:11:10;;;;;;;4.00;2.58;;;22.60;27.70;;;;;;5060456;28;20056;-68
2022/04/12 08:13:36;;;;;;;6.85;2.42;;;22.70;28.20;;;;;;5060137;28;20143;-67
2022/04/12 08:16:02;;;;;;;3.25;2.28;;;22.00;28.10;;;;;;5057388;28;20056;-66
2022/04/12 08:18:27;;;;;;;3.58;2.30;;;22.10;27.70;;;;;;5056432;28;20040;-66
2022/04/12 08:20:54;;;;;;;5.72;2.42;;;22.00;27.50;;;;;;5059526;28;20059;-67
2022/04/12 08:23:24;;;;;;;3.90;2.80;;;22.30;28.00;;;;;;5058417;28;20025;-67
2022/04/12 08:25:51;;;;;;;5.70;2.95;;;22.60;26.80;;;;;;5056800;28;20579;-67
2022/04/12 08:28:17;;;;;;;5.43;2.50;;;22.40;27.80;;;;;;5058796;28;20051;-66
2022/04/12 08:30:43;;;;;;;4.80;2.90;;;22.00;27.60;;;;;;5060064;28;20023;-68
2022/04/12 08:33:09;;;;;;;4.90;2.80;;;20.80;28.50;;;;;;5060267;28;20662;-68
2022/04/12 08:35:34;;;;;;;5.45;3.13;;;19.90;29.80;;;;;;5057518;28;20039;-68
2022/04/12 08:38:01;;;;;;;4.30;3.00;;;19.20;30.00;;;;;;5058962;28;20621;-68
2022/04/12 08:40:27;;;;;;;5.15;2.90;;;18.60;31.20;;;;;;5059256;28;20041;-68
2022/04/12 08:42:54;;;;;;;3.97;2.72;;;18.40;32.00;;;;;;5059430;28;20031;-68
2022/04/12 08:45:20;;;;;;;5.53;2.80;;;18.80;31.90;;;;;;5058569;28;20377;-68
2022/04/12 08:47:46;;;;;;;6.43;2.55;;;18.90;30.60;;;;;;5041594;28;20099;-68
2022/04/12 08:50:12;;;;;;;4.28;2.75;;;19.30;30.80;;;;;;5059016;28;20543;-66
2022/04/12 08:52:39;;;;;;;5.95;3.20;;;19.90;30.00;;;;;;5060007;28;20757;-67
2022/04/12 08:55:06;;;;;;;6.00;3.28;;;20.80;29.40;;;;;;5060547;28;20094;-66
2022/04/12 08:57:32;;;;;;;5.70;3.17;;;21.50;28.40;;;;;;5053986;28;20029;-67
2022/04/12 08:59:58;;;;;;;4.45;2.92;;;21.90;28.50;;;;;;5054798;28;20027;-67
2022/04/12 09:02:24;;;;;;;21.73;15.45;;;22.80;28.00;;;;;;5057746;28;20563;-66
2022/04/12 09:04:49;;;;;;;149.35;68.05;;;23.10;27.30;;;;;;5056424;28;20078;-66
2022/04/12 09:07:16;;;;;;;32.28;17.67;;;23.10;27.90;;;;;;5059548;28;20093;-66
2022/04/12 09:09:42;;;;;;;5.88;3.00;;;23.10;27.80;;;;;;5060262;28;20035;-67
2022/04/12 09:12:12;;;;;;;6.70;2.88;;;23.40;26.50;;;;;;5053439;28;20040;-69
2022/04/12 09:14:57;;;;;;;6.28;3.00;;;24.40;26.40;;;;;;5054713;28;20497;-65
2022/04/12 09:17:37;;;;;;;6.63;2.70;;;25.00;25.00;;;;;;5037348;28;20036;-65
2022/04/12 09:20:10;;;;;;;4.32;2.67;;;25.80;25.00;;;;;;5058932;28;20293;-66
2022/04/12 09:22:37;;;;;;;8.35;3.30;;;26.90;24.30;;;;;;5056376;28;20576;-67
2022/04/12 09:25:05;;;;;;;5.18;3.35;;;27.60;24.50;;;;;;5060115;28;20071;-66
2022/04/12 09:27:34;;;;;;;8.55;3.75;;;27.90;23.90;;;;;;5058546;28;20047;-66
2022/04/12 09:30:05;;;;;;;6.63;5.25;;;27.40;24.10;;;;;;5054458;28;20476;-63
2022/04/12 09:32:57;;;;;;;7.97;4.88;;;26.50;24.10;;;;;;5059550;28;20028;-67
2022/04/12 09:35:23;;;;;;;16.15;11.77;;;25.20;24.90;;;;;;5056020;28;20564;-67
2022/04/12 09:37:49;;;;;;;4.30;3.10;;;25.00;25.20;;;;;;5057762;28;20098;-68
2022/04/12 09:40:16;;;;;;;6.05;3.78;;;24.10;25.90;;;;;;5059560;28;21092;-67
2022/04/12 09:42:53;;;;;;;8.20;5.57;;;22.60;27.20;;;;;;5060101;28;20074;-67
2022/04/12 09:45:23;;;;;;;9.63;6.15;;;21.50;29.10;;;;;;5056868;28;20044;-67
2022/04/12 09:47:50;;;;;;;7.60;3.55;;;21.90;28.50;;;;;;5054744;28;20039;-67
2022/04/12 09:50:19;;;;;;;5.40;3.55;;;22.90;27.90;;;;;;5057016;28;20128;-67
2022/04/12 09:52:56;;;;;;;215.68;117.50;;;24.00;27.00;;;;;;5057068;28;20060;-67
2022/04/12 09:55:42;;;;;;;6.25;3.45;;;24.70;26.10;;;;;;5054788;28;20123;-67
2022/04/12 09:58:10;;;;;;;23.90;15.05;;;25.10;25.80;;;;;;5057108;28;20028;-68
2022/04/12 10:00:39;;;;;;;4.90;3.05;;;25.70;25.40;;;;;;5058178;28;20178;-68
2022/04/12 10:03:12;;;;;;;4.63;3.15;;;25.40;24.50;;;;;;5056098;28;20040;-68
2022/04/12 10:05:39;;;;;;;6.65;3.42;;;24.70;25.10;;;;;;5054317;28;20090;-63
2022/04/12 10:08:09;;;;;;;6.60;3.40;;;24.30;25.80;;;;;;5058644;28;20124;-67
2022/04/12 10:10:36;;;;;;;7.30;3.25;;;24.30;25.90;;;;;;5057244;28;20074;-68
2022/04/12 10:13:01;;;;;;;6.90;3.70;;;23.40;26.50;;;;;;5058610;28;20056;-69
2022/04/12 10:15:28;;;;;;;6.20;3.55;;;22.80;27.30;;;;;;5059449;28;20060;-67
2022/04/12 10:17:55;;;;;;;6.70;3.53;;;22.50;28.00;;;;;;5057683;28;20028;-68
2022/04/12 10:20:22;;;;;;;12.07;3.30;;;22.30;28.20;;;;;;5059078;28;20483;-67
2022/04/12 10:22:49;;;;;;;5.22;3.22;;;22.70;27.20;;;;;;5058160;28;20044;-67
2022/04/12 10:25:17;;;;;;;6.32;3.58;;;22.80;27.60;;;;;;5056562;28;20479;-67
2022/04/12 10:27:43;;;;;;;4.60;3.00;;;22.60;27.60;;;;;;5057172;28;20032;-67
2022/04/12 10:30:15;;;;;;;13.15;4.07;;;22.80;27.80;;;;;;5059669;28;20029;-68
2022/04/12 10:33:00;;;;;;;6.20;3.20;;;23.10;27.70;;;;;;5059845;28;20552;-66
2022/04/12 10:35:28;;;;;;;6.32;3.35;;;22.70;26.60;;;;;;5063797;28;20040;-66
2022/04/12 10:37:57;;;;;;;5.53;3.25;;;22.30;27.50;;;;;;5061858;28;20039;-67
2022/04/12 10:40:24;;;;;;;5.65;3.53;;;22.50;28.50;;;;;;5062789;28;20135;-68
2022/04/12 10:42:50;;;;;;;6.05;3.28;;;23.30;27.30;;;;;;5059580;28;20515;-67
2022/04/12 10:45:26;;;;;;;6.80;3.28;;;23.80;26.00;;;;;;5057229;28;20040;-68
2022/04/12 10:47:57;;;;;;;5.18;2.92;;;23.70;26.00;;;;;;5055462;28;20021;-67
2022/04/12 10:50:23;;;;;;;5.82;3.05;;;23.00;26.30;;;;;;5062380;28;20024;-68
2022/04/12 10:52:49;;;;;;;5.63;3.13;;;22.70;27.20;;;;;;5060349;28;20060;-68
2022/04/12 10:55:17;;;;;;;6.80;3.67;;;22.10;27.60;;;;;;5062208;28;20036;-67
2022/04/12 10:57:43;;;;;;;5.63;3.08;;;22.40;27.60;;;;;;5058711;28;20067;-68
2022/04/12 11:00:12;;;;;;;6.47;2.72;;;23.80;27.00;;;;;;5056675;28;20048;-68
2022/04/12 11:02:41;;;;;;;4.00;2.72;;;25.30;25.50;;;;;;5059171;28;20037;-67
2022/04/12 11:05:28;;;;;;;8.77;3.53;;;25.60;25.00;;;;;;5061295;28;20029;-67
2022/04/12 11:07:54;;;;;;;4.22;2.70;;;25.40;24.70;;;;;;5059714;28;20128;-67
2022/04/12 11:10:21;;;;;;;8.98;3.08;;;24.80;25.30;;;;;;5062763;28;20166;-67
2022/04/12 11:12:49;;;;;;;5.45;3.25;;;23.50;26.90;;;;;;5062011;28;20043;-67
2022/04/12 11:15:27;;;;;;;6.25;3.28;;;22.30;28.20;;;;;;5061996;28;20032;-67
2022/04/12 11:18:16;;;;;;;5.35;3.00;;;21.50;29.30;;;;;;5048580;28;20063;-68
2022/04/12 11:21:00;;;;;;;4.18;2.90;;;21.00;29.90;;;;;;5057682;28;20867;-68
2022/04/12 11:23:48;;;;;;;3.50;2.45;;;20.70;28.10;;;;;;5060882;28;20139;-67
2022/04/12 11:26:50;;;;;;;4.50;2.60;;;20.20;28.50;;;;;;5058275;28;20032;-68
2022/04/12 11:29:22;;;;;;;4.07;2.33;;;20.10;30.00;;;;;;5057650;28;20124;-68
2022/04/12 11:31:50;;;;;;;4.10;2.72;;;19.90;29.40;;;;;;5060925;28;20038;-67
2022/04/12 11:34:17;;;;;;;5.80;2.50;;;19.90;29.60;;;;;;5059364;28;20101;-67
2022/04/12 11:36:46;;;;;;;5.45;2.30;;;19.90;30.00;;;;;;5039467;28;20040;-68
2022/04/12 11:39:17;;;;;;;6.93;2.90;;;19.90;30.00;;;;;;5058830;28;20045;-68
2022/04/12 11:41:43;;;;;;;5.38;3.00;;;20.00;30.10;;;;;;5061083;28;20627;-67
2022/04/12 11:44:09;;;;;;;6.78;2.95;;;19.70;28.40;;;;;;5060901;28;20039;-67
2022/04/12 11:46:36;;;;;;;4.38;2.83;;;19.40;29.00;;;;;;5061106;28;20032;-67
2022/04/12 11:49:09;;;;;;;5.90;3.33;;;19.40;29.90;;;;;;5060563;28;20039;-67
2022/04/12 11:51:47;;;;;;;4.82;2.80;;;19.40;30.20;;;;;;5058829;28;20078;-67
2022/04/12 11:54:30;;;;;;;4.60;2.67;;;19.40;30.30;;;;;;5058582;28;20464;-67
2022/04/12 11:57:15;;;;;;;5.45;3.50;;;19.20;30.00;;;;;;5059579;28;20131;-67
2022/04/12 11:59:44;;;;;;;5.05;3.22;;;19.10;30.40;;;;;;5057069;28;20036;-67
2022/04/12 12:02:10;;;;;;;4.28;2.75;;;18.80;31.60;;;;;;5059834;28;20107;-68
2022/04/12 12:04:37;;;;;;;4.65;2.83;;;18.60;30.60;;;;;;5040654;28;20456;-67
2022/04/12 12:07:07;;;;;;;5.13;3.10;;;18.60;31.10;;;;;;5058876;28;20086;-68
2022/04/12 12:09:34;;;;;;;5.57;2.97;;;18.70;31.70;;;;;;5059759;28;20037;-67
2022/04/12 12:12:04;;;;;;;3.47;2.65;;;18.60;31.00;;;;;;5059876;28;20503;-67
2022/04/12 12:14:31;;;;;;;6.05;2.88;;;18.50;30.90;;;;;;5057023;28;20422;-68
2022/04/12 12:17:08;;;;;;;4.57;2.70;;;18.60;32.00;;;;;;5056206;28;20062;-68
2022/04/12 12:19:38;;;;;;;3.47;2.20;;;18.50;30.00;;;;;;5060412;28;20817;-68
2022/04/12 12:22:09;;;;;;;4.07;2.70;;;18.40;29.70;;;;;;5056681;28;20549;-68
2022/04/12 12:24:48;;;;;;;4.32;2.70;;;18.40;30.90;;;;;;5060304;28;20072;-68
2022/04/12 12:27:14;;;;;;;3.85;2.38;;;18.20;30.60;;;;;;5056608;28;20474;-68
2022/04/12 12:29:42;;;;;;;6.05;2.50;;;18.00;29.30;;;;;;5060051;28;20059;-68
2022/04/12 12:32:08;;;;;;;3.90;2.50;;;18.00;30.20;;;;;;5060430;28;20124;-68
2022/04/12 12:34:36;;;;;;;7.35;2.95;;;18.00;31.00;;;;;;5056769;28;20534;-68
2022/04/12 12:37:08;;;;;;;3.03;2.50;;;17.90;32.00;;;;;;5057480;28;20032;-68
2022/04/12 12:39:42;;;;;;;3.42;2.13;;;17.90;32.70;;;;;;5058763;28;20131;-68
2022/04/12 12:42:08;;;;;;;5.30;2.80;;;17.80;32.20;;;;;;5058214;28;20488;-68
2022/04/12 12:44:37;;;;;;;4.78;3.28;;;17.80;31.70;;;;;;5041454;28;20034;-68
2022/04/12 12:47:04;;;;;;;4.82;2.65;;;17.70;32.50;;;;;;5060338;28;20033;-68
2022/04/12 12:49:38;;;;;;;4.95;2.42;;;17.70;32.70;;;;;;5058997;28;20033;-68
2022/04/12 12:52:13;;;;;;;4.97;2.78;;;17.80;32.30;;;;;;5055717;28;20460;-67
2022/04/12 12:54:39;;;;;;;4.80;2.78;;;17.80;33.30;;;;;;5057506;28;20085;-67